Time;durP1;ratioP1;P1;durP2;ratioP2;P2;SDS_P1;SDS_P2;PMS_P1;PMS_P2;Temp;Humidity;BMP_temperature;BMP_pressure;BME280_temperature;BME280_humidity;BME280_pressure;Samples;Min_cycle;Max_cycle;Signal;HPM_P1;HPM_P2
2022/08/21 00:02:21;;;;;;;23.38;13.15;;;;;;;;;;5013773;28;20025;-84
2022/08/21 00:04:47;;;;;;;23.98;13.20;;;;;;;;;;5013489;28;20034;-83
2022/08/21 00:07:14;;;;;;;20.80;12.57;;;;;;;;;;5013762;28;20067;-83
2022/08/21 00:09:40;;;;;;;20.38;13.75;;;;;;;;;;5013790;28;20089;-84
2022/08/21 00:12:07;;;;;;;19.90;13.15;;;;;;;;;;5013672;28;20022;-85
2022/08/21 00:14:34;;;;;;;17.85;13.15;;;;;;;;;;5013000;28;20021;-83
2022/08/21 00:17:00;;;;;;;24.45;14.30;;;;;;;;;;5013122;28;20021;-83
2022/08/21 00:19:27;;;;;;;20.50;12.93;;;;;;;;;;5013347;28;20057;-82
2022/08/21 00:21:53;;;;;;;19.60;13.52;;;;;;;;;;5013303;28;20018;-84
2022/08/21 00:24:20;;;;;;;16.70;12.95;;;;;;;;;;5013794;28;20018;-84
2022/08/21 00:26:47;;;;;;;25.48;12.88;;;;;;;;;;5013152;28;20022;-84
2022/08/21 00:29:13;;;;;;;25.38;12.95;;;;;;;;;;5013295;28;20028;-83
2022/08/21 00:31:40;;;;;;;15.85;12.02;;;;;;;;;;5013542;28;20057;-83
2022/08/21 00:34:07;;;;;;;21.75;12.98;;;;;;;;;;5013023;28;20472;-85
2022/08/21 00:36:33;;;;;;;22.13;13.88;;;;;;;;;;5013066;28;20081;-83
2022/08/21 00:39:00;;;;;;;21.60;11.40;;;;;;;;;;5013128;28;20025;-84
2022/08/21 00:41:26;;;;;;;16.58;11.40;;;;;;;;;;5013180;28;20018;-83
2022/08/21 00:43:54;;;;;;;20.88;11.25;;;;;;;;;;5013007;28;20086;-84
2022/08/21 00:46:20;;;;;;;19.95;11.65;;;;;;;;;;5013075;28;20026;-84
2022/08/21 00:48:46;;;;;;;21.75;12.68;;;;;;;;;;5013035;28;20022;-83
2022/08/21 00:51:25;;;;;;;18.27;11.20;;;;;;;;;;5013143;28;20018;-83
2022/08/21 00:53:56;;;;;;;15.77;11.95;;;;;;;;;;5013471;28;20362;-84
2022/08/21 00:56:23;;;;;;;20.38;12.45;;;;;;;;;;5012945;28;20029;-85
2022/08/21 00:58:50;;;;;;;19.67;11.85;;;;;;;;;;5012938;28;20022;-83
2022/08/21 01:01:16;;;;;;;18.02;11.80;;;;;;;;;;5012889;28;20461;-82
2022/08/21 01:03:42;;;;;;;18.60;10.90;;;;;;;;;;5012948;28;20014;-84
2022/08/21 01:06:08;;;;;;;16.15;12.02;;;;;;;;;;5013031;28;20121;-85
2022/08/21 01:08:35;;;;;;;16.05;10.90;;;;;;;;;;5012901;28;20018;-85
2022/08/21 01:11:01;;;;;;;15.23;12.02;;;;;;;;;;5013196;28;20362;-84
2022/08/21 01:13:30;;;;;;;17.73;11.10;;;;;;;;;;5013104;28;20116;-85
2022/08/21 01:15:57;;;;;;;19.58;11.90;;;;;;;;;;5012805;28;20018;-83
2022/08/21 01:18:24;;;;;;;15.18;12.10;;;;;;;;;;5013075;28;20370;-85
2022/08/21 01:21:17;;;;;;;16.75;12.25;;;;;;;;;;5012908;28;20021;-85
2022/08/21 01:23:45;;;;;;;17.42;11.20;;;;;;;;;;5011017;28;20473;-83
2022/08/21 01:26:13;;;;;;;18.23;12.13;;;;;;;;;;5013105;28;20120;-85
2022/08/21 01:28:42;;;;;;;19.25;12.32;;;;;;;;;;5013762;28;20068;-84
2022/08/21 01:31:10;;;;;;;15.40;12.88;;;;;;;;;;5016599;28;20387;-85
2022/08/21 01:33:36;;;;;;;20.65;10.10;;;;;;;;;;5016333;28;20018;-84
2022/08/21 01:36:03;;;;;;;13.07;10.57;;;;;;;;;;5016456;28;20028;-85
2022/08/21 01:38:29;;;;;;;21.75;11.77;;;;;;;;;;5016435;28;20022;-84
2022/08/21 01:40:55;;;;;;;14.73;12.18;;;;;;;;;;5016252;28;20052;-84
2022/08/21 01:43:21;;;;;;;20.45;10.95;;;;;;;;;;5016108;28;20018;-85
2022/08/21 01:45:47;;;;;;;19.67;12.60;;;;;;;;;;5016253;28;20030;-85
2022/08/21 01:48:13;;;;;;;15.27;11.23;;;;;;;;;;5016517;28;20026;-86
2022/08/21 01:50:40;;;;;;;18.67;11.68;;;;;;;;;;5015680;28;20426;-85
2022/08/21 01:53:06;;;;;;;17.33;12.50;;;;;;;;;;5015708;28;20037;-84
2022/08/21 01:55:32;;;;;;;17.23;12.68;;;;;;;;;;5016206;28;20029;-84
2022/08/21 01:57:59;;;;;;;21.85;13.30;;;;;;;;;;5015914;28;20432;-85
2022/08/21 02:00:25;;;;;;;21.63;14.05;;;537.90;2406.40;;;;;;5015832;28;20022;-85
2022/08/21 02:02:52;;;;;;;20.27;14.18;;;537.70;2406.40;;;;;;5016076;28;20077;-85
2022/08/21 02:05:18;;;;;;;25.05;16.17;;;512.90;2380.80;;;;;;5018385;28;20038;-82
2022/08/21 02:07:48;;;;;;;28.33;17.00;;;537.60;2406.40;;;;;;5018950;28;20045;-84
2022/08/21 02:10:19;;;;;;;33.20;16.33;;;537.60;2406.40;;;;;;5018451;28;20022;-84
2022/08/21 02:12:45;;;;;;;23.65;14.68;;;537.60;2406.40;;;;;;5015357;28;20025;-85
2022/08/21 02:15:11;;;;;;;22.35;15.30;;;512.80;2355.20;;;;;;5015540;28;20026;-85
2022/08/21 02:17:43;;;;;;;26.23;15.48;;;512.90;2380.80;;;;;;5015503;28;20113;-86
2022/08/21 02:20:11;;;;;;;;;;;512.90;2380.80;;;;;;5015663;28;20060;-85
2022/08/21 02:22:37;;;;;;;21.00;14.85;;;;;;;;;;5015585;28;19965;-85
2022/08/21 02:25:04;;;;;;;25.00;16.40;;;;;;;;;;5015366;28;20050;-85
2022/08/21 02:27:37;;;;;;;25.95;17.50;;;;;;;;;;5015427;28;20025;-86
2022/08/21 02:30:03;;;;;;;23.13;15.55;;;;;;;;;;5015239;28;20018;-85
2022/08/21 02:32:30;;;;;;;21.65;15.40;;;;;;;;;;5014836;28;20026;-87
2022/08/21 02:34:57;;;;;;;25.48;16.95;;;;;;;;;;5015200;28;20022;-84
2022/08/21 02:37:23;;;;;;;23.48;16.70;;;;;;;;;;5015086;28;20028;-86
2022/08/21 02:39:49;;;;;;;22.77;16.33;;;;;;;;;;5014990;28;20028;-85
2022/08/21 02:42:16;;;;;;;31.00;16.85;;;;;;;;;;5015296;28;20026;-85
2022/08/21 02:44:42;;;;;;;27.00;17.77;;;;;;;;;;5015071;28;20347;-86
2022/08/21 02:47:08;;;;;;;25.90;18.38;;;;;;;;;;5014922;28;20022;-85
2022/08/21 02:49:34;;;;;;;27.95;19.35;;;;;;;;;;5014563;28;20050;-85
2022/08/21 02:52:01;;;;;;;25.05;19.75;;;;;;;;;;5014884;28;20040;-85
2022/08/21 02:54:27;;;;;;;30.15;21.40;;;;;;;;;;5014935;28;20021;-85
2022/08/21 02:56:53;;;;;;;30.85;19.98;;;;;;;;;;5014719;28;20034;-86
2022/08/21 02:59:19;;;;;;;32.92;20.73;;;;;;;;;;5014837;28;20022;-85
2022/08/21 03:01:45;;;;;;;26.48;19.20;;;;;;;;;;5014458;28;20026;-88
2022/08/21 03:04:11;;;;;;;26.92;19.15;;;;;;;;;;5014686;28;20032;-86
2022/08/21 03:06:37;;;;;;;27.52;18.30;;;;;;;;;;5014570;28;20395;-86
2022/08/21 03:09:04;;;;;;;29.85;19.42;;;;;;;;;;5014993;28;20117;-85
2022/08/21 03:11:30;;;;;;;29.33;20.27;;;;;;;;;;5014440;28;20014;-86
2022/08/21 03:13:56;;;;;;;34.13;19.15;;;;;;;;;;5014423;28;20024;-85
2022/08/21 03:16:22;;;;;;;28.02;20.40;;;;;;;;;;5014459;28;20021;-85
2022/08/21 03:18:48;;;;;;;25.65;19.20;;;;;;;;;;5014077;28;20505;-85
2022/08/21 03:21:14;;;;;;;25.15;18.63;;;;;;;;;;5014340;28;20022;-85
2022/08/21 03:23:41;;;;;;;22.08;17.85;;;;;;;;;;5014199;28;20033;-86
2022/08/21 03:26:10;;;;;;;29.17;19.27;;;;;;;;;;5014261;28;20117;-86
2022/08/21 03:28:36;;;;;;;27.80;20.92;;;;;;;;;;5014099;28;20013;-86
2022/08/21 03:31:02;;;;;;;33.05;22.63;;;;;;;;;;5014180;28;20026;-86
2022/08/21 03:33:28;;;;;;;33.72;23.42;;;;;;;;;;5014289;28;20014;-85
2022/08/21 03:35:57;;;;;;;31.90;22.45;;;;;;;;;;5014255;28;20486;-84
2022/08/21 03:38:24;;;;;;;33.10;21.73;;;;;;;;;;5014064;28;20026;-86
2022/08/21 03:40:50;;;;;;;28.48;19.85;;;;;;;;;;5013670;28;20017;-86
2022/08/21 03:43:16;;;;;;;28.52;20.70;;;;;;;;;;5014045;28;20361;-84
2022/08/21 03:45:42;;;;;;;28.20;20.55;;;;;;;;;;5014063;28;20026;-85
2022/08/21 03:48:09;;;;;;;31.55;20.90;;;;;;;;;;5014225;28;20024;-85
2022/08/21 03:50:40;;;;;;;34.72;22.38;;;;;;;;;;5013488;28;20046;-86
2022/08/21 03:53:06;;;;;;;32.80;21.70;;;;;;;;;;5013451;28;20022;-86
2022/08/21 03:55:32;;;;;;;26.73;18.63;;;;;;;;;;5013847;28;20022;-86
2022/08/21 03:57:58;;;;;;;30.00;20.75;;;;;;;;;;5013593;28;20033;-87
2022/08/21 04:00:24;;;;;;;27.65;19.05;;;;;;;;;;5014054;28;20057;-86
2022/08/21 04:02:51;;;;;;;21.10;15.07;;;;;;;;;;5013761;28;20022;-86
2022/08/21 04:05:26;;;;;;;22.85;15.30;;;;;;;;;;5013862;28;20105;-87
2022/08/21 04:07:54;;;;;;;26.65;17.42;;;;;;;;;;5013588;28;20018;-87
2022/08/21 04:10:20;;;;;;;30.95;19.27;;;;;;;;;;5013695;28;20018;-85
2022/08/21 04:12:46;;;;;;;30.50;18.77;;;;;;;;;;5014008;28;20037;-88
2022/08/21 04:15:13;;;;;;;29.15;18.48;;;;;;;;;;5013847;28;20025;-85
2022/08/21 04:17:39;;;;;;;30.88;20.25;;;;;;;;;;5013741;28;20028;-86
2022/08/21 04:20:06;;;;;;;30.65;18.92;;;;;;;;;;5015350;28;20024;-88
2022/08/21 04:22:32;;;;;;;29.20;18.98;;;;;;;;;;5013353;28;20370;-87
2022/08/21 04:24:58;;;;;;;32.97;20.33;;;;;;;;;;5013868;28;20465;-85
2022/08/21 04:27:24;;;;;;;35.90;22.48;;;;;;;;;;5013413;28;20026;-85
2022/08/21 04:29:50;;;;;;;33.22;21.15;;;;;;;;;;5013679;28;20022;-85
2022/08/21 04:32:26;;;;;;;30.98;20.65;;;;;;;;;;5013502;28;20501;-85
2022/08/21 04:34:58;;;;;;;32.03;20.63;;;;;;;;;;5013451;28;20026;-85
2022/08/21 04:37:24;;;;;;;40.05;22.48;;;;;;;;;;5013538;28;20025;-87
2022/08/21 04:39:50;;;;;;;32.00;21.10;;;;;;;;;;5013502;28;20110;-86
2022/08/21 04:42:17;;;;;;;44.05;22.73;;;;;;;;;;5013170;28;20017;-85
2022/08/21 04:44:43;;;;;;;36.63;20.95;;;;;;;;;;5013164;28;20052;-86
2022/08/21 04:47:09;;;;;;;31.00;21.63;;;;;;;;;;5013481;28;20021;-87
2022/08/21 04:49:35;;;;;;;34.22;22.10;;;;;;;;;;5012981;28;20034;-86
2022/08/21 04:52:02;;;;;;;42.65;23.92;;;;;;;;;;5013218;28;20048;-87
2022/08/21 04:54:28;;;;;;;30.67;21.10;;;;;;;;;;5013370;28;20060;-86
2022/08/21 04:56:56;;;;;;;35.10;21.77;;;;;;;;;;5013245;28;20022;-86
2022/08/21 04:59:32;;;;;;;37.55;24.55;;;;;;;;;;5013246;28;20101;-86
2022/08/21 05:01:58;;;;;;;45.05;25.23;;;;;;;;;;5013479;28;20112;-88
2022/08/21 05:04:27;;;;;;;40.42;24.27;;;;;;;;;;5015086;28;20101;-85
2022/08/21 05:06:55;;;;;;;34.80;22.67;;;;;;;;;;5016969;28;20108;-87
2022/08/21 05:09:22;;;;;;;29.10;21.42;;;;;;;;;;5016976;28;20092;-87
2022/08/21 05:11:49;;;;;;;31.52;18.90;;;;;;;;;;5016630;28;20018;-86
2022/08/21 05:14:15;;;;;;;28.23;17.85;;;;;;;;;;5016754;28;20022;-87
2022/08/21 05:16:43;;;;;;;26.67;17.88;;;;;;;;;;5016306;28;20018;-86
2022/08/21 05:19:10;;;;;;;26.17;16.52;;;;;;;;;;5016562;28;20072;-86
2022/08/21 05:21:38;;;;;;;21.45;16.75;;;;;;;;;;5019512;28;20465;-86
2022/08/21 05:24:04;;;;;;;22.90;17.02;;;;;;;;;;5040938;28;20018;-83
2022/08/21 05:26:30;;;;;;;19.50;16.05;;;;;;;;;;5037995;28;20013;-87
2022/08/21 05:28:56;;;;;;;26.00;18.65;;;;;;;;;;5016513;28;20053;-84
2022/08/21 05:31:23;;;;;;;26.25;19.20;;;;;;;;;;5016429;28;20014;-86
2022/08/21 05:33:49;;;;;;;34.85;20.38;;;;;;;;;;5016016;28;20354;-84
2022/08/21 05:36:15;;;;;;;28.80;18.13;;;;;;;;;;5015894;28;20113;-85
2022/08/21 05:38:41;;;;;;;28.88;18.35;;;;;;;;;;5016285;28;20028;-84
2022/08/21 05:41:07;;;;;;;32.10;19.02;;;;;;;;;;5015782;28;20370;-84
2022/08/21 05:43:35;;;;;;;24.80;17.70;;;;;;;;;;5016116;28;20029;-84
2022/08/21 05:46:04;;;;;;;25.58;17.98;;;;;;;;;;5015945;28;20055;-83
2022/08/21 05:48:30;;;;;;;28.83;19.10;;;;;;;;;;5015680;28;20362;-84
2022/08/21 05:50:56;;;;;;;28.27;18.75;;;;;;;;;;5015848;28;20473;-83
2022/08/21 05:53:23;;;;;;;22.67;18.38;;;;;;;;;;5015832;28;20026;-85
2022/08/21 05:55:50;;;;;;;24.75;19.40;;;;;;;;;;5015433;28;20053;-85
2022/08/21 05:58:17;;;;;;;28.67;18.35;;;;;;;;;;5015762;28;20018;-85
2022/08/21 06:00:44;;;;;;;28.80;16.83;;;;;;;;;;5015699;28;20022;-84
2022/08/21 06:03:24;;;;;;;21.92;15.75;;;;;;;;;;5015432;28;20021;-82
2022/08/21 06:05:50;;;;;;;21.38;12.88;;;;;;;;;;5015673;28;20523;-86
2022/08/21 06:08:18;;;;;;;21.33;14.48;;;;;;;;;;5015017;28;20049;-84
2022/08/21 06:10:44;;;;;;;20.83;14.25;;;;;;;;;;5015438;28;20022;-85
2022/08/21 06:13:11;;;;;;;20.38;13.73;;;;;;;;;;5015387;28;20014;-83
2022/08/21 06:15:37;;;;;;;23.08;13.82;;;;;;;;;;5014550;28;20076;-87
2022/08/21 06:18:04;;;;;;;24.00;15.15;;;;;;;;;;5015125;28;20038;-86
2022/08/21 06:20:31;;;;;;;17.98;13.65;;;;;;;;;;5015289;28;20028;-85
2022/08/21 06:22:57;;;;;;;23.52;14.00;;;;;;;;;;5015141;28;20022;-84
2022/08/21 06:25:24;;;;;;;17.55;13.73;;;;;;;;;;5015032;28;20018;-84
2022/08/21 06:27:50;;;;;;;19.52;14.02;;;;;;;;;;5015346;28;20022;-83
2022/08/21 06:30:17;;;;;;;20.25;14.25;;;;;;;;;;5014913;28;20021;-84
2022/08/21 06:32:43;;;;;;;24.92;14.68;;;;;;;;;;5014946;28;20037;-85
2022/08/21 06:35:09;;;;;;;28.70;15.98;;;;;;;;;;5015038;28;20458;-86
2022/08/21 06:37:35;;;;;;;22.50;15.35;;;;;;;;;;5014587;28;20117;-84
2022/08/21 06:40:03;;;;;;;21.70;15.70;;;;;;;;;;5014942;28;20014;-85
2022/08/21 06:42:29;;;;;;;20.73;15.73;;;;;;;;;;5015252;28;20473;-84
2022/08/21 06:44:55;;;;;;;28.55;15.07;;;;;;;;;;5014562;28;20018;-83
2022/08/21 06:47:21;;;;;;;25.30;16.33;;;;;;;;;;5014656;28;20025;-83
2022/08/21 06:49:47;;;;;;;20.77;16.23;;;;;;;;;;5014167;28;20084;-85
2022/08/21 06:52:14;;;;;;;23.13;15.75;;;;;;;;;;5014518;28;20018;-84
2022/08/21 06:54:41;;;;;;;26.08;16.73;;;;;;;;;;5014579;28;20025;-83
2022/08/21 06:57:07;;;;;;;21.70;16.20;;;;;;;;;;5014608;28;20022;-85
2022/08/21 06:59:33;;;;;;;22.80;15.25;;;;;;;;;;5014385;28;20029;-85
2022/08/21 07:02:00;;;;;;;19.17;15.15;;;;;;;;;;5014781;28;20084;-85
2022/08/21 07:04:26;;;;;;;26.40;15.68;;;;;;;;;;5014236;28;20057;-84
2022/08/21 07:06:52;;;;;;;23.63;15.85;;;;;;;;;;5014557;28;20018;-85
2022/08/21 07:09:19;;;;;;;23.65;15.30;;;;;;;;;;5014544;28;20053;-84
2022/08/21 07:11:49;;;;;;;21.05;15.93;;;;;;;;;;5013997;28;20018;-83
2022/08/21 07:14:15;;;;;;;27.50;15.23;;;;;;;;;;5014307;28;20412;-84
2022/08/21 07:16:41;;;;;;;21.98;15.57;;;;;;;;;;5014307;28;20021;-86
2022/08/21 07:19:07;;;;;;;25.33;16.30;;;;;;;;;;5014488;28;20428;-85
2022/08/21 07:21:33;;;;;;;21.52;15.63;;;;;;;;;;5015598;28;20158;-85
2022/08/21 07:23:59;;;;;;;24.10;15.57;;;;;;;;;;5015192;28;20112;-85
2022/08/21 07:26:25;;;;;;;23.27;14.93;;;;;;;;;;5013926;28;20025;-85
2022/08/21 07:28:52;;;;;;;20.92;14.23;;;;;;;;;;5014696;28;20113;-84
2022/08/21 07:31:19;;;;;;;21.38;16.27;;;;;;;;;;5014401;28;20405;-86
2022/08/21 07:33:45;;;;;;;21.30;16.25;;;;;;;;;;5014054;28;20108;-85
2022/08/21 07:36:12;;;;;;;20.85;15.32;;;;;;;;;;5014460;28;20524;-84
2022/08/21 07:38:38;;;;;;;25.23;19.17;;;;;;;;;;5013646;28;20028;-87
2022/08/21 07:41:10;;;;;;;22.10;17.70;;;;;;;;;;5015299;28;20097;-86
2022/08/21 07:43:36;;;;;;;;;;;;;;;;;;5014304;28;20480;-86
2022/08/21 07:46:02;;;;;;;19.63;14.25;;;;;;;;;;5014133;28;19902;-86
2022/08/21 07:48:28;;;;;;;18.42;13.75;;;;;;;;;;5014073;28;20048;-85
2022/08/21 07:50:55;;;;;;;15.63;13.15;;;;;;;;;;5013749;28;20068;-89
2022/08/21 07:53:46;;;;;;;;;;;;;;;;;;;;;
2022/08/21 07:56:13;;;;;;;13.07;9.80;;;;;;;;;;5014707;28;20474;-86
2022/08/21 07:58:39;;;;;;;10.75;8.35;;;;;;;;;;5030386;28;20243;-87
2022/08/21 08:01:08;;;;;;;11.30;8.57;;;;;;;;;;5030424;28;20073;-88
2022/08/21 08:03:35;;;;;;;11.95;7.65;;;;;;;;;;5030573;28;20454;-86
2022/08/21 08:06:04;;;;;;;13.25;6.70;;;;;;;;;;5030199;28;20076;-88
2022/08/21 08:08:30;;;;;;;10.10;6.10;;;;;;;;;;5013914;28;20026;-86
2022/08/21 08:10:57;;;;;;;8.75;6.00;;;;;;;;;;5030050;28;20029;-86
2022/08/21 08:13:23;;;;;;;7.10;4.70;;;;;;;;;;5030422;28;20021;-87
2022/08/21 08:15:49;;;;;;;5.32;4.03;;;;;;;;;;5016300;28;20370;-89
2022/08/21 08:18:16;;;;;;;5.65;4.10;;;;;;;;;;4994131;28;20047;-88
2022/08/21 08:20:42;;;;;;;6.45;4.45;;;;;;;;;;4993995;28;20019;-88
2022/08/21 08:23:12;;;;;;;4.80;3.40;;;;;;;;;;4994078;28;20081;-87
2022/08/21 08:25:38;;;;;;;5.72;3.35;;;;;;;;;;4994272;28;20045;-88
2022/08/21 08:28:06;;;;;;;4.90;2.72;;;;;;;;;;4993812;28;20026;-84
2022/08/21 08:30:32;;;;;;;5.38;2.70;;;;;;;;;;4993501;28;20027;-87
2022/08/21 08:32:59;;;;;;;4.38;3.05;;;;;;;;;;4993462;28;20026;-85
2022/08/21 08:35:26;;;;;;;4.70;2.70;;;;;;;;;;4993020;28;20022;-81
2022/08/21 08:37:52;;;;;;;4.25;2.67;;;;;;;;;;4994508;28;20022;-83
2022/08/21 08:40:39;;;;;;;;;;;;;;;;;;;;;
2022/08/21 08:43:11;;;;;;;4.65;2.78;;;;;;;;;;5000282;28;20025;-88
2022/08/21 08:46:11;;;;;;;4.50;2.78;;;;;;;;;;4997471;28;20042;-91
2022/08/21 08:48:53;;;;;;;3.88;2.55;;;;;;;;;;4998252;28;20596;-90
2022/08/21 08:51:53;;;;;;;5.65;2.92;;;;;;;;;;4963091;28;20462;-89
2022/08/21 08:54:41;;;;;;;4.10;3.15;;;;;;;;;;4885799;29;20045;-90
2022/08/21 08:57:24;;;;;;;4.88;3.13;;;;;;;;;;4901046;29;20047;-88
2022/08/21 08:59:52;;;;;;;4.72;3.30;;;;;;;;;;4969907;28;20033;-90
2022/08/21 09:02:20;;;;;;;4.35;2.90;;;;;;;;;;4962099;28;20366;-88
2022/08/21 09:04:48;;;;;;;4.88;3.30;;;;;;;;;;4962366;28;20513;-86
2022/08/21 09:07:33;;;;;;;5.15;3.63;;;;;;;;;;4961998;28;20451;-90
2022/08/21 09:10:09;;;;;;;7.00;4.57;;;;;;;;;;4962343;28;20019;-89
2022/08/21 09:12:51;;;;;;;6.05;4.35;;;;;;;;;;4962415;28;20030;-90
2022/08/21 09:15:18;;;;;;;6.10;4.28;;;;;;;;;;4962174;28;20166;-87
2022/08/21 09:18:05;;;;;;;5.22;4.28;;;589.20;2432.00;;;;;;4961507;28;20026;-78
2022/08/21 09:20:47;;;;;;;5.57;4.05;;;589.00;2432.00;;;;;;4960652;28;20371;-81
2022/08/21 09:23:34;;;;;;;;;;;588.90;2432.00;;;;;;4961182;28;20019;-83
2022/08/21 09:26:26;;;;;;;7.65;4.68;;;588.90;2432.00;;;;;;4961580;28;20249;-89
2022/08/21 09:28:56;;;;;;;8.23;4.95;;;589.00;2432.00;;;;;;4961385;28;20019;-86
2022/08/21 09:31:25;;;;;;;6.65;5.13;;;589.10;2432.00;;;;;;4960485;28;20031;-80
2022/08/21 09:34:17;;;;;;;6.47;4.70;;;589.00;2432.00;;;;;;4960204;28;20098;-80
2022/08/21 09:36:49;;;;;;;6.82;5.60;;;589.10;2432.00;;;;;;4960242;28;20031;-87
2022/08/21 09:39:24;;;;;;;6.05;5.28;;;;;;;;;;4959935;28;20030;-79
2022/08/21 09:42:00;;;;;;;6.68;4.97;;;;;;;;;;4977373;28;20528;-80
2022/08/21 09:44:38;;;;;;;8.95;6.97;;;;;;;;;;4977270;28;20089;-80
2022/08/21 09:47:05;;;;;;;6.13;5.05;;;;;;;;;;4959608;28;20471;-80
2022/08/21 09:49:32;;;;;;;7.80;6.28;;;;;;;;;;4969027;28;20046;-80
2022/08/21 09:51:58;;;;;;;8.52;6.18;;;;;;;;;;4995929;28;20023;-84
2022/08/21 09:54:33;;;;;;;7.65;6.32;;;;;;;;;;5010198;28;20034;-90
2022/08/21 09:59:46;;;;;;;7.18;5.82;;;;;;;;;;5017249;28;20067;-89
2022/08/21 10:02:29;;;;;;;6.63;5.93;;;;;;;;;;5016114;28;20026;-89
2022/08/21 10:05:01;;;;;;;8.02;6.32;;;;;;;;;;5017993;28;20466;-90
2022/08/21 10:07:29;;;;;;;8.30;7.32;;;;;;;;;;4996934;28;20027;-89
2022/08/21 10:10:04;;;;;;;8.20;6.53;;;;;;;;;;5012075;28;20029;-89
2022/08/21 10:12:41;;;;;;;10.35;6.90;;;;;;;;;;5012772;28;20015;-89
2022/08/21 10:15:13;;;;;;;7.60;6.65;;;;;;;;;;5012880;28;20405;-89
2022/08/21 10:17:47;;;;;;;8.20;6.68;;;;;;;;;;5021306;28;20026;-88
2022/08/21 10:20:37;;;;;;;7.78;5.93;;;;;;;;;;5015565;28;20018;-90
2022/08/21 10:23:12;;;;;;;6.43;5.13;;;;;;;;;;5033012;28;20430;-89
2022/08/21 10:25:39;;;;;;;6.88;5.40;;;;;;;;;;5032519;28;20373;-86
2022/08/21 10:40:01;;;;;;;6.97;5.72;;;666.20;2432.00;;;;;;5034464;28;20052;-88
2022/08/21 10:43:17;;;;;;;8.88;5.45;;;691.20;2432.00;;;;;;5018718;28;20071;-91
2022/08/21 10:55:03;;;;;;;7.22;5.80;;;666.30;2432.00;;;;;;5628438;23;20497;-92
2022/08/21 11:37:55;;;;;;;5.93;4.63;;;;;;;;;;5038715;28;20036;-85
2022/08/21 11:40:32;;;;;;;8.60;5.70;;;;;;;;;;5037523;28;20453;-84
2022/08/21 11:43:12;;;;;;;6.53;4.97;;;;;;;;;;5037082;28;20029;-86
2022/08/21 11:45:50;;;;;;;6.07;5.10;;;;;;;;;;5037261;28;20013;-86
2022/08/21 11:48:16;;;;;;;8.57;5.30;;;;;;;;;;5037421;28;20063;-86
2022/08/21 11:50:44;;;;;;;6.78;5.88;;;;;;;;;;5037316;28;20016;-87
2022/08/21 11:53:17;;;;;;;6.03;5.43;;;;;;;;;;5036839;28;20548;-87
2022/08/21 11:55:56;;;;;;;6.38;5.65;;;717.10;2432.00;;;;;;5037220;28;20028;-86
2022/08/21 11:58:48;;;;;;;10.40;5.38;;;716.90;2432.00;;;;;;5036698;28;20104;-86
2022/08/21 12:01:21;;;;;;;10.88;5.40;;;717.20;2432.00;;;;;;5035423;28;20108;-86
2022/08/21 12:03:58;;;;;;;6.70;4.93;;;;;;;;;;5034196;28;20155;-87
2022/08/21 12:06:35;;;;;;;6.10;5.15;;;717.50;2432.00;;;;;;5037017;28;20021;-87
2022/08/21 12:09:24;;;;;;;10.70;5.97;;;;;;;;;;5037305;28;20024;-88
2022/08/21 12:12:00;;;;;;;7.05;5.00;;;;;;;;;;5035695;28;20111;-89
2022/08/21 12:14:36;;;;;;;7.72;4.97;;;;;;;;;;5036823;28;20028;-88
2022/08/21 12:17:25;;;;;;;5.75;4.90;;;;;;;;;;5037145;28;20025;-89
2022/08/21 12:20:27;;;;;;;7.15;5.07;;;;;;;;;;4989789;28;20028;-88
2022/08/21 12:23:05;;;;;;;8.63;4.93;;;;;;;;;;5037270;28;20074;-90
2022/08/21 12:25:50;;;;;;;6.20;4.85;;;;;;;;;;5036745;28;20464;-90
2022/08/21 12:28:31;;;;;;;6.63;5.30;;;;;;;;;;5037531;28;20045;-89
2022/08/21 12:31:01;;;;;;;6.50;4.90;;;;;;;;;;5056948;28;20056;-88
2022/08/21 12:33:35;;;;;;;7.32;4.78;;;;;;;;;;5060776;28;20035;-88
2022/08/21 12:36:25;;;;;;;11.77;4.90;;;742.90;2432.00;;;;;;5139655;23;20045;-91
2022/08/21 12:39:04;;;;;;;7.03;5.15;;;742.90;2432.00;;;;;;5041687;28;20025;-89
2022/08/21 12:42:01;;;;;;;7.25;4.70;;;742.60;2432.00;;;;;;5043673;28;20025;-89
2022/08/21 12:55:04;;;;;;;7.63;4.95;;;768.10;2432.00;;;;;;5054095;28;20027;-92
2022/08/21 13:06:59;;;;;;;5.70;5.05;;;768.60;2432.00;;;;;;5249088;22;20049;-91
2022/08/21 13:09:42;;;;;;;14.57;12.07;;;768.50;2432.00;;;;;;5016912;28;20025;-88
2022/08/21 13:12:11;;;;;;;7.60;6.28;;;793.70;2432.00;;;;;;5016315;28;20029;-89
2022/08/21 13:18:36;;;;;;;9.20;5.75;;;768.20;2432.00;;;;;;5033754;28;20071;-90
2022/08/21 13:32:07;;;;;;;;;;;;;;;;;;;;;
2022/08/21 13:38:26;;;;;;;6.15;5.07;;;717.20;2432.00;;;;;;4958094;29;20080;-91
2022/08/21 13:47:52;;;;;;;13.40;8.70;;;691.90;2432.00;;;;;;4936986;28;20062;-89
2022/08/21 13:50:28;;;;;;;8.85;6.03;;;691.70;2432.00;;;;;;5017145;28;20128;-88
2022/08/21 13:53:02;;;;;;;12.05;7.03;;;666.00;2432.00;;;;;;5019244;28;20024;-90
2022/08/21 13:55:48;;;;;;;23.35;8.63;;;691.20;2432.00;;;;;;5019728;28;20033;-86
2022/08/21 13:58:28;;;;;;;16.45;8.82;;;666.50;2432.00;;;;;;5019765;28;20365;-87
2022/08/21 14:00:56;;;;;;;16.70;8.10;;;666.30;2432.00;;;;;;5019418;28;20030;-87
2022/08/21 14:03:43;;;;;;;19.27;9.02;;;666.20;2432.00;;;;;;5019598;28;20029;-86
2022/08/21 14:06:18;;;;;;;16.33;8.85;;;666.00;2432.00;;;;;;5019055;28;20041;-89
2022/08/21 14:08:51;;;;;;;12.68;8.98;;;665.70;2432.00;;;;;;5019312;28;20056;-86
2022/08/21 14:11:17;;;;;;;22.70;9.50;;;665.60;2432.00;;;;;;5019237;28;20017;-84
2022/08/21 14:35:00;;;;;;;18.55;11.70;;;615.00;2432.00;;;;;;5070524;28;20449;-83
2022/08/21 14:37:25;;;;;;;22.65;8.93;;;589.70;2432.00;;;;;;5069367;28;20040;-81
2022/08/21 14:39:51;;;;;;;12.05;7.78;;;589.70;2432.00;;;;;;5069310;28;20056;-81
2022/08/21 14:42:17;;;;;;;9.85;7.60;;;589.50;2432.00;;;;;;5069349;28;20059;-82
2022/08/21 14:44:43;;;;;;;11.30;7.53;;;589.50;2432.00;;;;;;5068962;28;20063;-82
2022/08/21 14:47:09;;;;;;;10.23;7.70;;;589.40;2432.00;;;;;;5070663;28;20064;-83
2022/08/21 14:49:35;;;;;;;10.98;7.47;;;589.20;2432.00;;;;;;5069236;28;20028;-82
2022/08/21 14:52:01;;;;;;;10.15;8.38;;;589.30;2432.00;;;;;;5070171;28;20484;-81
2022/08/21 14:54:30;;;;;;;10.70;7.88;;;589.20;2432.00;;;;;;5069184;28;20043;-81
2022/08/21 14:56:58;;;;;;;11.38;7.90;;;589.40;2432.00;;;;;;5069191;28;20074;-81
2022/08/21 14:59:25;;;;;;;13.43;8.07;;;589.60;2432.00;;;;;;5068807;28;20060;-82
2022/08/21 15:01:51;;;;;;;9.95;7.20;;;589.70;2432.00;;;;;;5070534;28;20021;-83
2022/08/21 15:04:18;;;;;;;11.57;7.13;;;589.70;2432.00;;;;;;5068905;28;20047;-82
2022/08/21 15:06:44;;;;;;;13.10;7.75;;;589.70;2432.00;;;;;;5068640;28;20465;-82
2022/08/21 15:09:09;;;;;;;10.25;7.40;;;614.40;2432.00;;;;;;5068902;28;20032;-81
2022/08/21 15:11:36;;;;;;;9.10;6.30;;;614.50;2432.00;;;;;;5068765;28;20481;-82
2022/08/21 15:14:07;;;;;;;8.48;6.03;;;614.50;2432.00;;;;;;5068660;28;20044;-83
2022/08/21 15:16:35;;;;;;;6.57;5.40;;;614.50;2432.00;;;;;;5069205;28;20031;-84
2022/08/21 15:19:00;;;;;;;11.13;6.18;;;614.50;2432.00;;;;;;5069217;28;20116;-83
2022/08/21 15:21:26;;;;;;;13.30;7.43;;;614.60;2432.00;;;;;;5068861;28;20115;-82
2022/08/21 15:23:53;;;;;;;8.23;6.22;;;614.60;2406.40;;;;;;5068553;28;20032;-83
2022/08/21 15:26:21;;;;;;;8.45;6.47;;;614.60;2432.00;;;;;;5068211;28;20033;-83
2022/08/21 15:28:47;;;;;;;10.75;7.07;;;614.60;2432.00;;;;;;5068671;28;20047;-82
2022/08/21 15:31:13;;;;;;;8.90;6.75;;;614.60;2432.00;;;;;;5068688;28;20485;-83
2022/08/21 15:33:39;;;;;;;7.30;5.25;;;614.70;2432.00;;;;;;5067611;28;20071;-84
2022/08/21 15:36:05;;;;;;;7.03;6.00;;;614.60;2432.00;;;;;;5054622;28;20029;-85
2022/08/21 15:38:31;;;;;;;8.68;5.82;;;614.60;2432.00;;;;;;5055463;28;20029;-84
2022/08/21 15:40:56;;;;;;;12.55;6.05;;;614.60;2432.00;;;;;;5055212;28;20082;-83
2022/08/21 15:43:25;;;;;;;7.25;5.22;;;614.60;2432.00;;;;;;5055649;28;20029;-84
2022/08/21 15:45:52;;;;;;;7.40;4.78;;;614.50;2432.00;;;;;;5055055;28;20033;-84
2022/08/21 15:48:18;;;;;;;6.70;4.88;;;589.70;2432.00;;;;;;5055532;28;20403;-84
2022/08/21 15:50:43;;;;;;;6.20;4.80;;;614.50;2432.00;;;;;;5055383;28;20095;-84
2022/08/21 15:53:09;;;;;;;7.13;4.80;;;614.40;2432.00;;;;;;5054871;28;20033;-84
2022/08/21 15:55:35;;;;;;;6.50;4.80;;;589.70;2432.00;;;;;;5055081;28;20120;-85
2022/08/21 15:58:04;;;;;;;8.07;4.80;;;589.70;2432.00;;;;;;5054915;28;20446;-84
2022/08/21 16:00:33;;;;;;;6.88;5.63;;;589.60;2432.00;;;;;;5055100;28;20079;-84
2022/08/21 16:03:00;;;;;;;7.18;4.43;;;589.60;2432.00;;;;;;5055721;28;20569;-84
2022/08/21 16:05:26;;;;;;;5.30;3.85;;;589.70;2432.00;;;;;;5054853;28;20115;-84
2022/08/21 16:07:52;;;;;;;6.25;3.72;;;589.60;2432.00;;;;;;5054826;28;20060;-83
2022/08/21 16:10:21;;;;;;;6.80;4.43;;;589.60;2432.00;;;;;;5055773;28;20454;-84
2022/08/21 16:12:55;;;;;;;5.80;4.28;;;589.50;2432.00;;;;;;5054923;28;20053;-84
2022/08/21 16:15:22;;;;;;;5.55;2.97;;;589.50;2432.00;;;;;;5051727;28;20043;-85